KCBE Airport Information

Runway Information
Runway 05 Length 5048 ft width 150 ft
Elevation 722 ft Threshold 0 ft Heading 39
Runway 23 Length 5048 ft Width 150 ft
Elevation 776 ft Threshold 0 ft Heading 219
Runway 11 Length 2442 ft width 150 ft
Elevation 723 ft Threshold 0 ft Heading 97
Runway 29 Length 2442 ft Width 150 ft
Elevation 727 ft Threshold 0 ft Heading 277
Airport Frequencies
Type AWOS Name AWOS 3 Frequency 128.625 MHZ
Type CNTR Name CLEVELAND Frequency 124.4 MHZ
Type RDO Name ELKINS RDO Frequency 122.35 MHZ
Type UNIC Name CTAF/UNICO Frequency 122.8 MHZ
Airport Navaids
Airport Weather Information & NOTAM
ADDS - METARS form results

(1423 UTC 14 June 2021)
Data provider http://aviationweather.gov/metar/data/
 
METAR text: KCBE 141415Z AUTO 25003KT 10SM CLR 24/18 A2992 RMK AO2 T02390175
Conditions at: KCBE (CUMBERLAND REG , MD, US) observed 1415 UTC 14 June 2021
Temperature: 23.9°C (75°F)
Dewpoint: 17.5°C (64°F) [RH = 67%]
Pressure (altimeter): 29.92 inches Hg (1013.3 mb)
Winds: from the WSW (250 degrees) at 3 MPH (3 knots; 1.5 m/s)
Visibility: 10 or more miles (16+ km)
Ceiling: at least 12,000 feet AGL
Clouds: sky clear below 12,000 feet AGL
Weather: automated observation with no human augmentation;
there may or may not be significant weather present at this time

METAR text: KCBE 141355Z AUTO 00000KT 10SM CLR 23/18 A2992 RMK AO2 T02350179
Conditions at: KCBE (CUMBERLAND REG , MD, US) observed 1355 UTC 14 June 2021
Temperature: 23.5°C (74°F)
Dewpoint: 17.9°C (64°F) [RH = 71%]
Pressure (altimeter): 29.92 inches Hg (1013.3 mb)
Winds: calm
Visibility: 10 or more miles (16+ km)
Ceiling: at least 12,000 feet AGL
Clouds: sky clear below 12,000 feet AGL
Weather: automated observation with no human augmentation;
there may or may not be significant weather present at this time

METAR text: KCBE 141335Z AUTO 00000KT 10SM CLR 22/18 A2992 RMK AO2 T02180180
Conditions at: KCBE (CUMBERLAND REG , MD, US) observed 1335 UTC 14 June 2021
Temperature: 21.8°C (71°F)
Dewpoint: 18.0°C (64°F) [RH = 79%]
Pressure (altimeter): 29.92 inches Hg (1013.3 mb)
Winds: calm
Visibility: 10 or more miles (16+ km)
Ceiling: at least 12,000 feet AGL
Clouds: sky clear below 12,000 feet AGL
Weather: automated observation with no human augmentation;
there may or may not be significant weather present at this time